Atwell, New York
Current Conditions -  °F | °C
As of 2:53 AM on Sunday 28 Dec 2014 (Local Time) from KRME Reporting Station
Light Rain Light Rain  
Wind Chill:   Ceiling: 4100
Heat Index:   Visibility: 10mi
Dew Point:   Wind: 6mph
Humidity: 90%   Direction: 180°S
Pressure: 29.87"   Gusts: NA
Location:  43.501°N, 75.1602°W
Report Text: KRME 280753Z AUTO 18005KT 10SM -RA OVC041 07/06 A2987 RMK AO2 SLP117 P0005 T00720056
Loading
Personal Weather Stations






























Interactive Weather Map New forecast layout! Learn more

10-Day Weather Forecast

Advertisements
Track Severe Weather on mobile